Flight Track Log - Related Links

Times and Time Zones

All times are in EDT time to prevent confusion due to time zone crossing. See the ASQ5564 flight status page for this flight to view local times or setup timezone preferences in your user account.

Time Position Orientation Groundspeed Altitude Reporting Facility
EDT Latitude Longitude Course Direction KTS MPH feet Rate Location/Type
Thu 08:33:46 AM 33.6475 -84.4731 283° West 387 445 2,600  Level Atlanta Center
Thu 08:34:46 AM 33.6617 -84.5481 283° West 268 308 4,900 2,650 Climbing Atlanta Center
Thu 08:35:46 AM 33.6781 -84.6431 282° West 268 308 7,900 2,550 Climbing Atlanta Center
Thu 08:36:46 AM 33.6817 -84.7353 273° West 279 321 10,000 1,650 Climbing Atlanta Center
Thu 08:37:46 AM 33.6392 -84.8372 243° Southwest 301 346 11,200 1,550 Climbing Atlanta Center
Thu 08:38:46 AM 33.5928 -84.9392 241° Southwest 342 394 13,100 1,900 Climbing Atlanta Center
Thu 08:39:46 AM 33.5522 -85.0383 244° Southwest 347 399 15,000 1,700 Climbing Atlanta Center
Thu 08:40:46 AM 33.5056 -85.1450 242° Southwest 347 399 16,500 1,400 Climbing Atlanta Center
Thu 08:41:46 AM 33.4689 -85.2542 248° West 352 405 17,800 1,300 Climbing Atlanta Center
Thu 08:42:46 AM 33.4492 -85.3583 257° West 357 411 19,100 1,400 Climbing Atlanta Center
Thu 08:43:46 AM 33.4247 -85.4750 256° West 357 411 20,600 1,300 Climbing Atlanta Center
Thu 08:44:46 AM 33.4025 -85.5939 257° West 362 417 21,700 1,100 Climbing Atlanta Center
Thu 08:45:46 AM 33.3758 -85.7131 255° West 367 422 22,800 1,050 Climbing Atlanta Center
Thu 08:46:46 AM 33.3158 -85.8261 238° Southwest 359 413 23,800 1,000 Climbing Atlanta Center
Thu 08:47:46 AM 33.2394 -85.9164 225° Southwest 380 437 24,800 1,050 Climbing Atlanta Center
Thu 08:48:46 AM 33.1586 -86.0089 224° Southwest 391 450 25,900 1,050 Climbing Atlanta Center
Thu 08:49:46 AM 33.0819 -86.0989 225° Southwest 391 450 26,900 1,000 Climbing Atlanta Center
Thu 08:50:46 AM 33.0033 -86.1889 224° Southwest 396 456 27,900 550 Climbing Atlanta Center
Thu 08:51:46 AM 32.9242 -86.2833 225° Southwest 396 456 28,000 50 Climbing Atlanta Center
Thu 08:52:46 AM 32.8433 -86.3728 223° Southwest 396 456 28,000  Level Atlanta Center
Thu 08:53:46 AM 32.7622 -86.4694 225° Southwest 403 464 28,000  Level Atlanta Center
Thu 08:54:46 AM 32.6831 -86.5611 224° Southwest 398 458 28,000  Level Atlanta Center
Thu 08:55:46 AM 32.6039 -86.6525 224° Southwest 398 458 28,000  Level Atlanta Center
Thu 08:56:46 AM 32.5311 -86.7342 223° Southwest 398 458 28,000  Level Atlanta Center
Thu 08:57:46 AM 32.4519 -86.8253 224° Southwest 403 464 28,000  Level Atlanta Center
Thu 08:58:46 AM 32.3728 -86.9161 224° Southwest 403 464 28,000  Level Atlanta Center
Thu 08:59:46 AM 32.2911 -87.0069 223° Southwest 403 464 28,000  Level Atlanta Center
Thu 09:00:46 AM 32.2117 -87.0975 224° Southwest 403 464 28,000  Level Atlanta Center
Thu 09:01:46 AM 32.1303 -87.1881 223° Southwest 408 470 28,000  Level Atlanta Center
Thu 09:02:46 AM 32.0506 -87.2758 223° Southwest 408 470 28,000  Level Atlanta Center
Thu 09:03:46 AM 31.9689 -87.3658 223° Southwest 408 470 28,000  Level Atlanta Center
Thu 09:05:19 AM 31.8497 -87.4994 224° Southwest 401 461 28,000  Level Houston Center
Thu 09:06:20 AM 31.7522 -87.6058 223° Southwest 400 460 28,000  Level Houston Center
Thu 09:07:22 AM 31.6717 -87.6964 224° Southwest 400 460 28,000  Level Houston Center
Thu 09:08:24 AM 31.5900 -87.7858 223° Southwest 401 461 28,000  Level Houston Center
Thu 09:09:26 AM 31.5092 -87.8764 224° Southwest 402 463 28,000  Level Houston Center
Thu 09:10:28 AM 31.4289 -87.9650 223° Southwest 400 460 28,000 -194 Level Houston Center
Thu 09:11:30 AM 31.3481 -88.0544 223° Southwest 401 461 27,600 -1,548 Descending Houston Center
Thu 09:12:32 AM 31.2506 -88.1608 223° Southwest 404 465 24,800 -2,468 Descending Houston Center
Thu 09:13:34 AM 31.1719 -88.2469 223° Southwest 394 453 22,500 -2,177 Descending Houston Center
Thu 09:14:36 AM 31.0969 -88.3278 223° Southwest 379 436 20,300 -2,177 Descending Houston Center
Thu 09:15:38 AM 31.0239 -88.4069 223° Southwest 367 422 18,000 -2,323 Descending Houston Center
Thu 09:16:40 AM 30.9358 -88.5019 223° Southwest 363 418 15,500 -2,244 Descending Houston Center
Thu 09:17:41 AM 30.8644 -88.5781 222° Southwest 349 402 13,400 -1,902 Descending Houston Center
Thu 09:18:43 AM 30.7947 -88.6533 223° Southwest 343 395 11,600 -1,161 Descending Houston Center
Thu 09:19:45 AM 30.7281 -88.7256 223° Southwest 332 382 11,000 -290 Descending Houston Center
Thu 09:20:47 AM 30.6650 -88.7939 223° Southwest 316 364 11,000 -919 Level Houston Center
Thu 09:21:49 AM 30.6044 -88.8842 232° Southwest 297 342 9,100 -1,839 Descending Houston Center
Thu 09:22:51 AM 30.5639 -88.9511 235° Southwest 277 319 7,200 -1,790 Descending Houston Center
Thu 09:23:53 AM 30.5250 -89.0147 235° Southwest 249 287 5,400 -1,632 Descending Houston Center
Thu 09:24:56 AM 30.5089 -89.0769 253° West 209 241 3,800 -1,584 Descending Houston Center
Thu 09:25:58 AM 30.4928 -89.1339 252° West 191 220 2,100 -1,355 Descending Houston Center
Thu 09:27:00 AM 30.4467 -89.1194 165° South 154 177 1,000 -677 Descending Houston Center
Thu 09:28:02 AM 30.4239 -89.0925 134° Southeast 143 165 700 -290 Descending Houston Center
Thu 09:30:00 AM 30.4000 -89.0667 221° Southwest  Level FlightAware Approximate
Thu 09:37:00 AM 30.4073 -89.0701 221° Southwest  Level Estimated

Login

Don't have an account? Register now (free) for customized features, flight alerts, and more!